createdAt,value
2018-02-27T00:02:03.903Z,23.45
2018-02-27T00:04:31.085Z,24.92
2018-02-27T00:06:57.492Z,30.35
2018-02-27T00:09:23.935Z,24.63
2018-02-27T00:11:50.349Z,28.33
2018-02-27T00:14:16.773Z,30.65
2018-02-27T00:16:43.204Z,27.40
2018-02-27T00:19:09.613Z,25.25
2018-02-27T00:21:36.884Z,29.23
2018-02-27T00:24:04.032Z,25.92
2018-02-27T00:26:30.446Z,27.37
2018-02-27T00:28:57.344Z,29.58
2018-02-27T00:31:23.782Z,27.42
2018-02-27T00:33:50.166Z,36.45
2018-02-27T00:36:17.331Z,29.10
2018-02-27T00:38:43.742Z,32.45
2018-02-27T00:41:10.149Z,24.20
2018-02-27T00:43:37.299Z,24.60
2018-02-27T00:46:03.903Z,26.02
2018-02-27T00:48:31.052Z,27.27
2018-02-27T00:50:58.207Z,28.95
2018-02-27T00:53:24.620Z,38.08
2018-02-27T00:55:51.054Z,29.70
2018-02-27T00:58:18.188Z,24.90
2018-02-27T01:00:44.684Z,28.38
2018-02-27T01:03:11.897Z,31.00
2018-02-27T01:05:38.417Z,30.35
2018-02-27T01:08:05.683Z,33.80
2018-02-27T01:10:32.863Z,30.77
2018-02-27T01:13:03.012Z,32.63
2018-02-27T01:15:29.560Z,24.40
2018-02-27T01:17:56.715Z,32.60
2018-02-27T01:20:23.119Z,27.20
2018-02-27T01:22:53.190Z,34.15
2018-02-27T01:25:19.617Z,28.65
2018-02-27T01:27:46.009Z,29.65
2018-02-27T01:30:13.147Z,32.30
2018-02-27T01:32:39.602Z,28.42
2018-02-27T01:35:06.020Z,34.75
2018-02-27T01:37:33.200Z,25.30
2018-02-27T01:39:59.608Z,30.98
2018-02-27T01:42:26.101Z,28.77
2018-02-27T01:44:52.507Z,27.05
2018-02-27T01:47:18.927Z,28.40
2018-02-27T01:49:45.351Z,24.63
2018-02-27T01:52:12.577Z,30.75
2018-02-27T01:54:38.997Z,32.28
2018-02-27T01:57:06.155Z,27.65
2018-02-27T01:59:33.345Z,32.33
2018-02-27T02:01:59.796Z,30.42
2018-02-27T02:04:26.936Z,30.15
2018-02-27T02:06:53.381Z,29.27
2018-02-27T02:09:23.874Z,30.75
2018-02-27T02:11:50.272Z,32.67
2018-02-27T02:14:16.676Z,29.65
2018-02-27T02:16:43.861Z,30.23
2018-02-27T02:19:10.350Z,31.37
2018-02-27T02:21:36.868Z,29.77
2018-02-27T02:24:03.278Z,28.20
2018-02-27T02:26:29.679Z,34.22
2018-02-27T02:28:56.847Z,33.40
2018-02-27T02:31:24.022Z,31.27
2018-02-27T02:33:50.472Z,28.67
2018-02-27T02:36:17.606Z,30.67
2018-02-27T02:38:44.006Z,31.37
2018-02-27T02:41:11.140Z,28.85
2018-02-27T02:43:37.554Z,27.87
2018-02-27T02:46:03.937Z,32.72
2018-02-27T02:48:30.323Z,32.50
2018-02-27T02:50:57.457Z,30.37
2018-02-27T02:53:24.379Z,31.83
2018-02-27T02:55:51.524Z,36.63
2018-02-27T02:58:17.932Z,31.40
2018-02-27T03:00:44.322Z,30.67
2018-02-27T03:03:10.740Z,33.30
2018-02-27T03:05:37.127Z,29.65
2018-02-27T03:08:03.552Z,36.17
2018-02-27T03:10:29.966Z,32.30
2018-02-27T03:12:57.110Z,27.87
2018-02-27T03:15:24.127Z,33.33
2018-02-27T03:17:50.537Z,30.27
2018-02-27T03:20:16.906Z,31.55
2018-02-27T03:22:43.312Z,34.55
2018-02-27T03:25:09.711Z,32.28
2018-02-27T03:27:36.131Z,38.28
2018-02-27T03:30:02.653Z,36.58
2018-02-27T03:32:29.068Z,36.80
2018-02-27T03:34:55.481Z,32.67
2018-02-27T03:37:21.916Z,32.53
2018-02-27T03:39:49.044Z,27.00
2018-02-27T03:42:15.460Z,35.25
2018-02-27T03:44:41.874Z,29.92
2018-02-27T03:47:09.048Z,33.28
2018-02-27T03:49:37.064Z,29.70
2018-02-27T03:52:04.238Z,29.37
2018-02-27T03:54:31.380Z,31.75
2018-02-27T03:56:58.309Z,30.60
2018-02-27T03:59:24.724Z,35.60
2018-02-27T04:01:51.879Z,33.10
2018-02-27T04:04:19.046Z,29.08
2018-02-27T04:06:46.960Z,25.42
2018-02-27T04:09:14.141Z,30.52
2018-02-27T04:11:40.573Z,35.63
2018-02-27T04:14:07.745Z,28.30
2018-02-27T04:16:34.152Z,34.28
2018-02-27T04:19:00.608Z,27.08
2018-02-27T04:21:27.027Z,36.47
2018-02-27T04:23:54.304Z,31.40
2018-02-27T04:26:21.466Z,36.33
2018-02-27T04:28:49.122Z,25.80
2018-02-27T04:31:16.999Z,30.08
2018-02-27T04:33:44.000Z,27.67
2018-02-27T04:36:11.142Z,29.67
2018-02-27T04:38:37.563Z,34.65
2018-02-27T04:41:04.252Z,34.65
2018-02-27T04:43:30.713Z,37.65
2018-02-27T04:45:57.138Z,31.77
2018-02-27T04:48:23.547Z,30.20
2018-02-27T04:50:51.446Z,31.92
2018-02-27T04:53:18.608Z,29.52
2018-02-27T04:55:45.765Z,39.83
2018-02-27T04:58:12.199Z,44.03
2018-02-27T05:00:38.615Z,52.17
2018-02-27T05:03:05.928Z,49.38
2018-02-27T05:05:32.360Z,36.58
2018-02-27T05:07:58.774Z,30.98
2018-02-27T05:10:25.240Z,34.08
2018-02-27T05:12:52.414Z,33.90
2018-02-27T05:15:19.603Z,47.22
2018-02-27T05:17:46.760Z,40.40
2018-02-27T05:20:14.613Z,29.83
2018-02-27T05:22:41.036Z,30.50
2018-02-27T05:25:08.496Z,35.05
2018-02-27T05:27:34.921Z,28.77
2018-02-27T05:30:01.362Z,37.33
2018-02-27T05:32:27.804Z,35.85
2018-02-27T05:34:54.216Z,28.70
2018-02-27T05:37:21.506Z,28.62
2018-02-27T05:39:47.947Z,34.97
2018-02-27T05:42:15.221Z,39.38
2018-02-27T05:44:41.659Z,35.60
2018-02-27T05:47:08.846Z,32.53
2018-02-27T05:49:36.029Z,27.00
2018-02-27T05:52:02.486Z,34.80
2018-02-27T05:54:28.969Z,36.83
2018-02-27T05:56:55.398Z,40.05
2018-02-27T05:59:21.955Z,38.83
2018-02-27T06:01:48.507Z,39.65
2018-02-27T06:04:15.783Z,42.55
2018-02-27T06:06:42.992Z,33.33
2018-02-27T06:09:09.388Z,45.45
2018-02-27T06:11:35.819Z,32.70
2018-02-27T06:14:02.323Z,34.25
2018-02-27T06:16:29.464Z,41.28
2018-02-27T06:18:55.854Z,43.17
2018-02-27T06:21:22.282Z,39.17
2018-02-27T06:23:49.416Z,57.80
2018-02-27T06:26:15.834Z,42.47
2018-02-27T06:28:43.023Z,54.58
2018-02-27T06:31:09.564Z,49.92
2018-02-27T06:33:36.000Z,44.95
2018-02-27T06:36:03.152Z,43.92
2018-02-27T06:38:29.583Z,37.83
2018-02-27T06:40:59.785Z,33.00
2018-02-27T06:43:26.957Z,37.45
2018-02-27T06:45:54.103Z,40.25
2018-02-27T06:48:21.226Z,41.03
2018-02-27T06:50:47.681Z,40.10
2018-02-27T06:53:14.127Z,37.30
2018-02-27T06:55:40.562Z,48.92
2018-02-27T06:58:07.726Z,40.05
2018-02-27T07:00:34.895Z,39.17
2018-02-27T07:03:02.053Z,41.47
2018-02-27T07:05:28.448Z,37.08
2018-02-27T07:07:55.295Z,37.45
2018-02-27T07:10:22.478Z,40.42
2018-02-27T07:12:50.500Z,42.33
2018-02-27T07:15:16.945Z,60.22
2018-02-27T07:17:43.430Z,63.30
2018-02-27T07:20:09.937Z,42.55
2018-02-27T07:22:37.105Z,36.35
2018-02-27T07:25:04.244Z,38.05
2018-02-27T07:27:30.650Z,41.17
2018-02-27T07:29:57.085Z,38.85
2018-02-27T07:32:24.295Z,36.58
2018-02-27T07:34:50.823Z,37.35
2018-02-27T07:37:18.012Z,43.65
2018-02-27T07:39:44.408Z,36.08
2018-02-27T07:42:10.900Z,39.47
2018-02-27T07:44:38.090Z,37.58
2018-02-27T07:47:04.517Z,34.00
2018-02-27T07:49:31.145Z,35.33
2018-02-27T07:51:57.653Z,34.22
2018-02-27T07:54:24.824Z,30.58
2018-02-27T07:56:51.972Z,37.80
2018-02-27T07:59:18.394Z,37.13
2018-02-27T08:01:44.909Z,38.97
2018-02-27T08:04:12.081Z,35.22
2018-02-27T08:06:38.505Z,34.75
2018-02-27T08:09:05.004Z,40.05
2018-02-27T08:11:31.424Z,35.25
2018-02-27T08:13:57.859Z,42.13
2018-02-27T08:16:24.356Z,39.60
2018-02-27T08:18:51.681Z,36.13
2018-02-27T08:21:18.099Z,46.63
2018-02-27T08:23:44.570Z,43.95
2018-02-27T08:26:11.030Z,35.72
2018-02-27T08:28:37.469Z,43.28
2018-02-27T08:31:04.023Z,40.28
2018-02-27T08:33:31.040Z,44.20
2018-02-27T08:35:57.546Z,39.65
2018-02-27T08:38:24.711Z,31.17
2018-02-27T08:40:51.843Z,38.60
2018-02-27T08:43:18.261Z,34.17
2018-02-27T08:45:44.696Z,32.67
2018-02-27T08:48:11.158Z,36.45
2018-02-27T08:50:38.334Z,34.28
2018-02-27T08:53:04.765Z,32.95
2018-02-27T08:55:31.946Z,31.65
2018-02-27T08:57:59.236Z,35.08
2018-02-27T09:00:26.408Z,37.17
2018-02-27T09:02:52.846Z,30.52
2018-02-27T09:05:20.022Z,49.50
2018-02-27T09:07:47.164Z,30.83
2018-02-27T09:10:13.766Z,29.67
2018-02-27T09:12:40.182Z,29.48
2018-02-27T09:15:06.610Z,33.42
2018-02-27T09:17:33.011Z,35.05
2018-02-27T09:20:00.176Z,29.58
2018-02-27T09:22:26.660Z,34.75
2018-02-27T09:24:53.078Z,32.78
2018-02-27T09:27:19.490Z,31.37
2018-02-27T09:29:45.944Z,32.65
2018-02-27T09:32:12.381Z,34.72
2018-02-27T09:37:56.516Z,31.70
2018-02-27T09:40:23.973Z,32.22
2018-02-27T09:42:50.390Z,30.17
2018-02-27T09:45:16.799Z,33.05
2018-02-27T09:47:43.805Z,33.28
2018-02-27T09:50:10.210Z,34.58
2018-02-27T09:52:36.624Z,41.37
2018-02-27T09:55:03.025Z,35.92
2018-02-27T09:57:30.223Z,28.92
2018-02-27T09:59:57.400Z,24.45
2018-02-27T10:02:24.545Z,31.75
2018-02-27T10:04:50.996Z,26.05
2018-02-27T10:07:18.204Z,29.83
2018-02-27T10:09:44.653Z,24.98
2018-02-27T10:12:12.343Z,26.50
2018-02-27T10:14:39.484Z,25.23
2018-02-27T10:17:06.483Z,30.75
2018-02-27T10:19:33.636Z,23.73
2018-02-27T10:22:00.813Z,28.90
2018-02-27T10:24:27.941Z,22.52
2018-02-27T10:26:54.333Z,25.42
2018-02-27T10:29:20.773Z,24.50
2018-02-27T10:31:47.198Z,26.83
2018-02-27T10:34:13.634Z,30.80
2018-02-27T10:36:40.068Z,27.17
2018-02-27T10:39:07.240Z,24.37
2018-02-27T10:41:34.395Z,27.73
2018-02-27T10:44:00.795Z,25.65
2018-02-27T10:46:27.334Z,24.20
2018-02-27T10:48:53.733Z,25.23
2018-02-27T10:51:20.138Z,24.15
2018-02-27T10:53:47.312Z,22.65
2018-02-27T10:56:14.515Z,23.08
2018-02-27T10:58:40.956Z,24.77
2018-02-27T11:01:13.350Z,29.50
2018-02-27T11:03:39.888Z,24.33
2018-02-27T11:06:07.158Z,34.38
2018-02-27T11:08:34.301Z,23.67
2018-02-27T11:11:00.691Z,26.60
2018-02-27T11:13:27.855Z,25.90
2018-02-27T11:15:55.016Z,30.95
2018-02-27T11:18:23.050Z,36.08
2018-02-27T11:20:49.480Z,24.33
2018-02-27T11:23:16.756Z,28.70
2018-02-27T11:25:43.966Z,34.03
2018-02-27T11:28:10.613Z,27.73
2018-02-27T11:30:37.067Z,33.45
2018-02-27T11:33:03.710Z,33.42
2018-02-27T11:35:30.263Z,37.75
2018-02-27T11:37:57.422Z,22.52
2018-02-27T11:40:24.626Z,26.62
2018-02-27T11:42:51.075Z,30.17
2018-02-27T11:45:17.495Z,27.00
2018-02-27T11:47:43.983Z,31.25
2018-02-27T11:50:10.403Z,31.08
2018-02-27T11:52:36.990Z,27.95
2018-02-27T11:55:04.135Z,25.37
2018-02-27T11:57:30.566Z,26.05
2018-02-27T11:59:56.984Z,27.10
2018-02-27T12:02:23.462Z,30.60
2018-02-27T12:04:49.856Z,21.95
2018-02-27T12:07:16.261Z,26.98
2018-02-27T12:09:42.941Z,28.05
2018-02-27T12:12:09.381Z,30.83
2018-02-27T12:14:35.803Z,26.37
2018-02-27T12:17:02.932Z,23.02
2018-02-27T12:19:29.443Z,28.85
2018-02-27T12:21:56.145Z,28.75
2018-02-27T12:24:22.524Z,26.33
2018-02-27T12:26:49.734Z,30.30
2018-02-27T12:29:16.181Z,30.20
2018-02-27T12:31:43.329Z,25.62
2018-02-27T12:34:09.765Z,26.15
2018-02-27T12:36:36.206Z,29.10
2018-02-27T12:39:02.842Z,28.38
2018-02-27T12:41:29.976Z,25.75
2018-02-27T12:43:56.383Z,30.70
2018-02-27T12:46:22.800Z,30.52
2018-02-27T12:48:49.967Z,32.20
2018-02-27T12:51:16.372Z,21.80
2018-02-27T12:53:42.753Z,30.48
2018-02-27T12:56:09.965Z,36.10
2018-02-27T12:58:37.136Z,29.55
2018-02-27T13:01:04.280Z,23.73
2018-02-27T13:03:30.768Z,40.00
2018-02-27T13:05:57.938Z,23.42
2018-02-27T13:08:25.084Z,20.37
2018-02-27T13:10:51.525Z,38.33
2018-02-27T13:13:17.966Z,33.88
2018-02-27T13:15:44.384Z,29.35
2018-02-27T13:18:10.827Z,23.05
2018-02-27T13:20:38.014Z,29.27
2018-02-27T13:23:04.456Z,24.45
2018-02-27T13:25:31.656Z,25.83
2018-02-27T13:27:58.120Z,35.03
2018-02-27T13:30:24.538Z,36.25
2018-02-27T13:32:51.710Z,33.45
2018-02-27T13:35:18.923Z,29.40
2018-02-27T13:37:45.327Z,22.00
2018-02-27T13:40:12.536Z,20.77
2018-02-27T13:42:39.010Z,21.35
2018-02-27T13:45:05.534Z,22.98
2018-02-27T13:47:33.316Z,19.30
2018-02-27T13:50:00.514Z,22.58
2018-02-27T13:52:26.940Z,25.48
2018-02-27T13:54:54.113Z,26.73
2018-02-27T13:57:21.275Z,22.13
2018-02-27T13:59:48.479Z,26.35
2018-02-27T14:02:14.919Z,24.15
2018-02-27T14:04:42.731Z,20.30
2018-02-27T14:07:09.348Z,19.50
2018-02-27T14:09:35.802Z,22.10
2018-02-27T14:12:02.254Z,24.17
2018-02-27T14:14:28.665Z,23.05
2018-02-27T14:16:55.133Z,19.48
2018-02-27T14:19:21.603Z,21.85
2018-02-27T14:21:48.103Z,19.37
2018-02-27T14:24:15.383Z,19.30
2018-02-27T14:26:42.706Z,20.88
2018-02-27T14:29:09.216Z,21.33
2018-02-27T14:31:35.620Z,17.90
2018-02-27T14:34:05.481Z,27.67
2018-02-27T14:36:32.465Z,22.02
2018-02-27T14:38:59.630Z,20.85
2018-02-27T14:41:27.679Z,17.23
2018-02-27T14:43:54.189Z,19.25
2018-02-27T14:46:21.335Z,28.40
2018-02-27T14:48:47.818Z,27.00
2018-02-27T14:51:15.006Z,18.02
2018-02-27T14:53:41.547Z,22.50
2018-02-27T14:56:08.689Z,20.37
2018-02-27T14:58:35.225Z,27.08
2018-02-27T15:01:01.635Z,46.30
2018-02-27T15:03:28.105Z,23.85
2018-02-27T15:05:54.531Z,25.98
2018-02-27T15:08:21.702Z,21.08
2018-02-27T15:10:48.845Z,22.25
2018-02-27T15:13:15.348Z,29.10
2018-02-27T15:15:42.517Z,18.58
2018-02-27T15:18:09.734Z,19.67
2018-02-27T15:20:36.199Z,33.80
2018-02-27T15:23:04.095Z,24.12
2018-02-27T15:25:30.531Z,20.45
2018-02-27T15:27:56.924Z,19.02
2018-02-27T15:30:23.354Z,22.83
2018-02-27T15:32:49.770Z,20.00
2018-02-27T15:35:16.194Z,19.48
2018-02-27T15:37:42.625Z,18.52
2018-02-27T15:40:10.659Z,19.20
2018-02-27T15:42:37.841Z,19.58
2018-02-27T15:45:04.775Z,45.80
2018-02-27T15:47:32.038Z,18.40
2018-02-27T15:49:58.484Z,14.75
2018-02-27T15:52:25.294Z,17.58
2018-02-27T15:54:51.715Z,13.77
2018-02-27T15:57:18.895Z,16.40
2018-02-27T15:59:46.194Z,16.87
2018-02-27T16:02:13.470Z,16.20
2018-02-27T16:04:40.678Z,19.37
2018-02-27T16:07:07.099Z,20.17
2018-02-27T16:09:34.374Z,26.35
2018-02-27T16:12:01.646Z,25.88
2018-02-27T16:14:28.920Z,22.83
2018-02-27T16:16:56.120Z,35.90
2018-02-27T16:19:22.564Z,31.95
2018-02-27T16:21:48.999Z,28.50
2018-02-27T16:24:15.479Z,20.00
2018-02-27T16:26:41.971Z,17.17
2018-02-27T16:29:08.403Z,15.85
2018-02-27T16:31:34.934Z,21.17
2018-02-27T16:34:01.402Z,16.55
2018-02-27T16:36:27.823Z,16.42
2018-02-27T16:38:55.937Z,19.50
2018-02-27T16:41:22.491Z,32.83
2018-02-27T16:43:48.956Z,21.40
2018-02-27T16:46:15.402Z,17.48
2018-02-27T16:48:42.692Z,17.62
2018-02-27T16:51:09.769Z,21.17
2018-02-27T16:53:36.312Z,23.48
2018-02-27T16:56:03.689Z,27.50
2018-02-27T16:58:30.886Z,20.15
2018-02-27T17:00:58.474Z,19.80
2018-02-27T17:03:24.915Z,17.42
2018-02-27T17:05:51.316Z,26.27
2018-02-27T17:08:18.473Z,77.90
2018-02-27T17:13:38.177Z,19.40
2018-02-27T17:16:04.691Z,18.58
2018-02-27T17:18:31.850Z,20.95
2018-02-27T17:20:58.991Z,24.15
2018-02-27T17:23:25.492Z,22.35
2018-02-27T17:25:52.671Z,23.42
2018-02-27T17:28:19.223Z,22.30
2018-02-27T17:30:46.405Z,25.60
2018-02-27T17:33:12.831Z,21.50
2018-02-27T17:35:40.147Z,23.02
2018-02-27T17:38:06.568Z,19.73
2018-02-27T17:40:33.856Z,20.90
2018-02-27T17:43:00.285Z,18.30
2018-02-27T17:45:26.738Z,20.35
2018-02-27T17:47:54.049Z,21.08
2018-02-27T17:50:20.471Z,16.25
2018-02-27T17:52:46.921Z,24.20
2018-02-27T17:55:13.347Z,18.20
2018-02-27T17:57:39.785Z,22.45
2018-02-27T18:00:06.244Z,16.05
2018-02-27T18:02:32.789Z,24.15
2018-02-27T18:04:59.544Z,23.95
2018-02-27T18:07:26.733Z,21.17
2018-02-27T18:09:53.381Z,20.33
2018-02-27T18:12:20.533Z,19.52
2018-02-27T18:14:47.112Z,17.98
2018-02-27T18:17:15.672Z,22.67
2018-02-27T18:19:42.894Z,20.45
2018-02-27T18:22:09.348Z,24.17
2018-02-27T18:24:35.760Z,19.48
2018-02-27T18:27:02.358Z,23.65
2018-02-27T18:29:28.756Z,29.58
2018-02-27T18:31:55.271Z,27.60
2018-02-27T18:34:21.761Z,27.70
2018-02-27T18:36:48.235Z,24.35
2018-02-27T18:39:14.740Z,22.10
2018-02-27T18:41:41.910Z,23.35
2018-02-27T18:44:09.126Z,25.30
2018-02-27T18:46:35.513Z,25.37
2018-02-27T18:49:02.723Z,24.83
2018-02-27T18:51:29.189Z,22.80
2018-02-27T18:53:55.661Z,24.58
2018-02-27T18:56:23.005Z,25.05
2018-02-27T18:58:50.166Z,29.05
2018-02-27T19:01:16.616Z,26.05
2018-02-27T19:03:43.793Z,30.52
2018-02-27T19:06:10.262Z,25.85
2018-02-27T19:08:36.816Z,26.12
2018-02-27T19:11:03.967Z,19.55
2018-02-27T19:13:30.389Z,25.45
2018-02-27T19:15:56.858Z,27.17
2018-02-27T19:18:23.328Z,29.87
2018-02-27T19:20:51.268Z,25.85
2018-02-27T19:23:17.718Z,31.87
2018-02-27T19:25:44.155Z,22.08
2018-02-27T19:28:11.382Z,28.02
2018-02-27T19:30:37.802Z,21.65
2018-02-27T19:33:04.287Z,25.25
2018-02-27T19:35:30.705Z,29.25
2018-02-27T19:37:57.107Z,24.63
2018-02-27T19:40:23.535Z,27.45
2018-02-27T19:42:49.986Z,26.45
2018-02-27T19:45:16.384Z,28.48
2018-02-27T19:47:42.802Z,27.50
2018-02-27T19:50:09.248Z,22.27
2018-02-27T19:52:35.669Z,27.50
2018-02-27T19:55:02.533Z,24.17
2018-02-27T19:57:29.751Z,27.85
2018-02-27T19:59:56.270Z,26.33
2018-02-27T20:02:22.716Z,23.17
2018-02-27T20:04:49.895Z,33.25
2018-02-27T20:07:17.030Z,25.48
2018-02-27T20:09:43.471Z,23.48
2018-02-27T20:12:09.854Z,27.25
2018-02-27T20:14:36.300Z,30.27
2018-02-27T20:17:03.393Z,25.88
2018-02-27T20:19:30.586Z,23.42
2018-02-27T20:21:57.747Z,21.08
2018-02-27T20:24:24.937Z,24.33
2018-02-27T20:26:51.401Z,25.12
2018-02-27T20:29:21.670Z,24.83
2018-02-27T20:31:48.194Z,24.25
2018-02-27T20:34:15.626Z,23.98
2018-02-27T20:36:43.250Z,26.23
2018-02-27T20:39:16.666Z,24.67
2018-02-27T20:41:43.169Z,23.67
2018-02-27T20:44:09.780Z,27.83
2018-02-27T20:46:36.279Z,18.62
2018-02-27T20:49:02.704Z,22.70
2018-02-27T20:51:29.252Z,28.50
2018-02-27T20:53:55.708Z,24.92
2018-02-27T20:56:22.266Z,26.83
2018-02-27T20:58:49.545Z,23.67
2018-02-27T21:01:16.100Z,18.12
2018-02-27T21:03:43.282Z,28.05
2018-02-27T21:06:09.791Z,26.35
2018-02-27T21:08:36.238Z,20.33
2018-02-27T21:11:04.965Z,29.67
2018-02-27T21:13:32.222Z,26.10
2018-02-27T21:16:00.691Z,24.15
2018-02-27T21:18:27.224Z,24.60
2018-02-27T21:20:53.784Z,22.45
2018-02-27T21:23:20.251Z,28.98
2018-02-27T21:25:46.696Z,25.90
2018-02-27T21:28:13.971Z,25.83
2018-02-27T21:30:40.404Z,24.60
2018-02-27T21:33:07.594Z,28.52
2018-02-27T21:35:34.730Z,32.60
2018-02-27T21:38:01.152Z,20.67
2018-02-27T21:40:29.608Z,24.92
2018-02-27T21:42:56.779Z,22.33
2018-02-27T21:45:23.213Z,25.12
2018-02-27T21:47:49.709Z,26.37
2018-02-27T21:50:16.856Z,24.20
2018-02-27T21:52:44.794Z,21.50
2018-02-27T21:55:11.746Z,22.02
2018-02-27T21:57:38.168Z,33.08
2018-02-27T22:00:05.345Z,28.77
2018-02-27T22:02:32.521Z,25.65
2018-02-27T22:04:59.362Z,24.33
2018-02-27T22:07:25.858Z,20.20
2018-02-27T22:09:53.010Z,26.92
2018-02-27T22:12:20.199Z,26.75
2018-02-27T22:14:47.356Z,24.23
2018-02-27T22:17:14.214Z,29.20
2018-02-27T22:19:41.493Z,21.15
2018-02-27T22:22:08.009Z,22.67
2018-02-27T22:24:34.438Z,32.75
2018-02-27T22:27:00.851Z,28.00
2018-02-27T22:29:27.316Z,31.62
2018-02-27T22:31:55.334Z,28.20
2018-02-27T22:34:22.487Z,29.50
2018-02-27T22:36:49.688Z,27.33
2018-02-27T22:39:16.095Z,24.23
2018-02-27T22:41:42.493Z,26.67
2018-02-27T22:44:09.268Z,24.17
2018-02-27T22:46:35.709Z,23.23
2018-02-27T22:49:02.862Z,24.35
2018-02-27T22:51:30.029Z,31.60
2018-02-27T22:53:56.431Z,24.95
2018-02-27T22:56:22.963Z,27.52
2018-02-27T22:58:50.152Z,26.85
2018-02-27T23:01:16.570Z,25.55
2018-02-27T23:03:43.740Z,36.38
2018-02-27T23:06:10.910Z,42.17
2018-02-27T23:08:38.061Z,28.50
2018-02-27T23:11:04.495Z,33.65
2018-02-27T23:13:30.919Z,35.03
2018-02-27T23:15:58.045Z,27.37
2018-02-27T23:18:24.495Z,27.10
2018-02-27T23:20:50.927Z,24.17
2018-02-27T23:23:17.300Z,20.92
2018-02-27T23:25:53.300Z,26.92
2018-02-27T23:28:22.051Z,27.00
2018-02-27T23:30:49.857Z,31.85
2018-02-27T23:33:21.835Z,29.67
2018-02-27T23:35:48.273Z,30.05
2018-02-27T23:38:15.236Z,25.20
2018-02-27T23:40:41.843Z,32.70
2018-02-27T23:43:08.254Z,31.95
2018-02-27T23:45:34.688Z,29.73
2018-02-27T23:48:02.448Z,29.90
2018-02-27T23:50:30.306Z,27.02
2018-02-27T23:52:56.705Z,25.95
2018-02-27T23:55:23.876Z,25.73
2018-02-27T23:57:51.049Z,26.40
